sensor_id;sensor_type;location;lat;lon;timestamp;P1;durP1;ratioP1;P2;durP2;ratioP2
43857;SDS011;29507;51.284;5.758;2022-08-01T00:00:12;7.15;;;3.60;;
43857;SDS011;29507;51.284;5.758;2022-08-01T00:02:38;7.75;;;3.80;;
43857;SDS011;29507;51.284;5.758;2022-08-01T00:05:05;6.05;;;3.63;;
43857;SDS011;29507;51.284;5.758;2022-08-01T00:07:32;6.20;;;3.63;;
43857;SDS011;29507;51.284;5.758;2022-08-01T00:09:58;6.35;;;3.97;;
43857;SDS011;29507;51.284;5.758;2022-08-01T00:12:24;8.77;;;4.55;;
43857;SDS011;29507;51.284;5.758;2022-08-01T00:14:50;9.48;;;5.40;;
43857;SDS011;29507;51.284;5.758;2022-08-01T00:17:15;12.98;;;6.88;;
43857;SDS011;29507;51.284;5.758;2022-08-01T00:19:41;11.75;;;7.25;;
43857;SDS011;29507;51.284;5.758;2022-08-01T00:22:06;11.00;;;7.47;;
43857;SDS011;29507;51.284;5.758;2022-08-01T00:24:32;9.52;;;7.40;;
43857;SDS011;29507;51.284;5.758;2022-08-01T00:26:58;11.60;;;8.00;;
43857;SDS011;29507;51.284;5.758;2022-08-01T00:29:23;12.30;;;8.25;;
43857;SDS011;29507;51.284;5.758;2022-08-01T00:31:49;10.98;;;7.20;;
43857;SDS011;29507;51.284;5.758;2022-08-01T00:34:14;9.18;;;7.20;;
43857;SDS011;29507;51.284;5.758;2022-08-01T00:36:40;11.40;;;6.47;;
43857;SDS011;29507;51.284;5.758;2022-08-01T00:39:05;11.07;;;6.95;;
43857;SDS011;29507;51.284;5.758;2022-08-01T00:41:31;11.25;;;7.13;;
43857;SDS011;29507;51.284;5.758;2022-08-01T00:43:57;10.13;;;5.93;;
43857;SDS011;29507;51.284;5.758;2022-08-01T00:46:22;10.90;;;6.50;;
43857;SDS011;29507;51.284;5.758;2022-08-01T00:48:48;9.07;;;5.88;;
43857;SDS011;29507;51.284;5.758;2022-08-01T00:51:13;10.65;;;6.20;;
43857;SDS011;29507;51.284;5.758;2022-08-01T00:53:40;10.68;;;7.03;;
43857;SDS011;29507;51.284;5.758;2022-08-01T00:56:05;14.13;;;7.05;;
43857;SDS011;29507;51.284;5.758;2022-08-01T00:58:32;9.30;;;6.28;;
43857;SDS011;29507;51.284;5.758;2022-08-01T01:00:59;9.70;;;6.40;;
43857;SDS011;29507;51.284;5.758;2022-08-01T01:03:25;9.45;;;6.32;;
43857;SDS011;29507;51.284;5.758;2022-08-01T01:09:18;8.10;;;6.07;;
43857;SDS011;29507;51.284;5.758;2022-08-01T01:17:00;10.90;;;6.47;;
43857;SDS011;29507;51.284;5.758;2022-08-01T01:19:28;9.15;;;6.18;;
43857;SDS011;29507;51.284;5.758;2022-08-01T01:22:08;12.05;;;6.38;;
43857;SDS011;29507;51.284;5.758;2022-08-01T01:24:58;15.05;;;5.82;;
43857;SDS011;29507;51.284;5.758;2022-08-01T01:27:36;12.65;;;6.75;;
43857;SDS011;29507;51.284;5.758;2022-08-01T01:30:10;9.77;;;6.05;;
43857;SDS011;29507;51.284;5.758;2022-08-01T01:32:38;10.40;;;6.47;;
43857;SDS011;29507;51.284;5.758;2022-08-01T01:35:09;15.20;;;7.00;;
43857;SDS011;29507;51.284;5.758;2022-08-01T01:37:40;17.55;;;7.15;;
43857;SDS011;29507;51.284;5.758;2022-08-01T01:40:09;10.05;;;6.78;;
43857;SDS011;29507;51.284;5.758;2022-08-01T01:42:36;9.48;;;6.85;;
43857;SDS011;29507;51.284;5.758;2022-08-01T01:45:03;12.30;;;6.70;;
43857;SDS011;29507;51.284;5.758;2022-08-01T01:47:31;11.63;;;7.88;;
43857;SDS011;29507;51.284;5.758;2022-08-01T01:49:58;14.02;;;7.45;;
43857;SDS011;29507;51.284;5.758;2022-08-01T01:52:26;15.90;;;8.65;;
43857;SDS011;29507;51.284;5.758;2022-08-01T01:54:54;12.40;;;7.45;;
43857;SDS011;29507;51.284;5.758;2022-08-01T01:57:21;12.35;;;8.10;;
43857;SDS011;29507;51.284;5.758;2022-08-01T01:59:48;11.88;;;7.55;;
43857;SDS011;29507;51.284;5.758;2022-08-01T02:02:15;10.27;;;7.45;;
43857;SDS011;29507;51.284;5.758;2022-08-01T02:04:42;14.07;;;7.60;;
43857;SDS011;29507;51.284;5.758;2022-08-01T02:07:11;12.73;;;7.70;;
43857;SDS011;29507;51.284;5.758;2022-08-01T02:09:39;12.00;;;8.02;;
43857;SDS011;29507;51.284;5.758;2022-08-01T02:12:07;10.25;;;6.90;;
43857;SDS011;29507;51.284;5.758;2022-08-01T02:17:05;10.25;;;6.88;;
43857;SDS011;29507;51.284;5.758;2022-08-01T02:19:34;12.15;;;7.80;;
43857;SDS011;29507;51.284;5.758;2022-08-01T02:22:07;11.57;;;7.37;;
43857;SDS011;29507;51.284;5.758;2022-08-01T02:24:49;19.27;;;8.48;;
43857;SDS011;29507;51.284;5.758;2022-08-01T02:27:21;11.13;;;7.75;;
43857;SDS011;29507;51.284;5.758;2022-08-01T02:29:56;16.63;;;8.32;;
43857;SDS011;29507;51.284;5.758;2022-08-01T02:32:30;15.68;;;8.57;;
43857;SDS011;29507;51.284;5.758;2022-08-01T02:35:01;13.27;;;8.88;;
43857;SDS011;29507;51.284;5.758;2022-08-01T02:37:29;10.88;;;8.52;;
43857;SDS011;29507;51.284;5.758;2022-08-01T02:39:58;15.55;;;8.93;;
43857;SDS011;29507;51.284;5.758;2022-08-01T02:42:26;16.10;;;9.50;;
43857;SDS011;29507;51.284;5.758;2022-08-01T02:44:55;13.98;;;9.77;;
43857;SDS011;29507;51.284;5.758;2022-08-01T02:47:22;17.52;;;9.52;;
43857;SDS011;29507;51.284;5.758;2022-08-01T02:49:50;14.07;;;8.35;;
43857;SDS011;29507;51.284;5.758;2022-08-01T02:52:18;13.25;;;8.95;;
43857;SDS011;29507;51.284;5.758;2022-08-01T02:54:47;16.45;;;9.68;;
43857;SDS011;29507;51.284;5.758;2022-08-01T02:57:15;18.17;;;9.95;;
43857;SDS011;29507;51.284;5.758;2022-08-01T02:59:42;18.50;;;11.45;;
43857;SDS011;29507;51.284;5.758;2022-08-01T03:02:09;13.63;;;9.00;;
43857;SDS011;29507;51.284;5.758;2022-08-01T03:04:36;17.15;;;10.30;;
43857;SDS011;29507;51.284;5.758;2022-08-01T03:07:04;16.27;;;10.60;;
43857;SDS011;29507;51.284;5.758;2022-08-01T03:09:33;18.45;;;10.10;;
43857;SDS011;29507;51.284;5.758;2022-08-01T03:12:04;17.67;;;10.25;;
43857;SDS011;29507;51.284;5.758;2022-08-01T03:14:52;16.05;;;11.43;;
43857;SDS011;29507;51.284;5.758;2022-08-01T03:17:20;18.50;;;10.93;;
43857;SDS011;29507;51.284;5.758;2022-08-01T03:19:47;16.85;;;11.45;;
43857;SDS011;29507;51.284;5.758;2022-08-01T03:22:14;19.33;;;11.40;;
43857;SDS011;29507;51.284;5.758;2022-08-01T03:24:42;17.83;;;11.18;;
43857;SDS011;29507;51.284;5.758;2022-08-01T03:27:11;20.55;;;11.30;;
43857;SDS011;29507;51.284;5.758;2022-08-01T03:29:39;18.40;;;11.15;;
43857;SDS011;29507;51.284;5.758;2022-08-01T03:32:06;13.77;;;10.35;;
43857;SDS011;29507;51.284;5.758;2022-08-01T03:34:33;16.98;;;11.48;;
43857;SDS011;29507;51.284;5.758;2022-08-01T03:37:01;18.83;;;12.30;;
43857;SDS011;29507;51.284;5.758;2022-08-01T03:39:37;20.80;;;12.35;;
43857;SDS011;29507;51.284;5.758;2022-08-01T03:42:19;20.10;;;12.45;;
43857;SDS011;29507;51.284;5.758;2022-08-01T03:44:52;22.25;;;13.15;;
43857;SDS011;29507;51.284;5.758;2022-08-01T03:47:21;18.83;;;12.50;;
43857;SDS011;29507;51.284;5.758;2022-08-01T03:49:51;21.10;;;14.05;;
43857;SDS011;29507;51.284;5.758;2022-08-01T03:52:18;20.70;;;13.52;;
43857;SDS011;29507;51.284;5.758;2022-08-01T03:54:47;20.42;;;12.90;;
43857;SDS011;29507;51.284;5.758;2022-08-01T03:57:16;22.73;;;12.50;;
43857;SDS011;29507;51.284;5.758;2022-08-01T03:59:43;22.48;;;13.55;;
43857;SDS011;29507;51.284;5.758;2022-08-01T04:02:09;20.77;;;12.82;;
43857;SDS011;29507;51.284;5.758;2022-08-01T04:04:38;23.95;;;14.27;;
43857;SDS011;29507;51.284;5.758;2022-08-01T04:07:04;20.05;;;13.18;;
43857;SDS011;29507;51.284;5.758;2022-08-01T04:09:32;22.60;;;13.98;;
43857;SDS011;29507;51.284;5.758;2022-08-01T04:12:00;24.35;;;14.93;;
43857;SDS011;29507;51.284;5.758;2022-08-01T04:14:27;23.67;;;14.35;;
43857;SDS011;29507;51.284;5.758;2022-08-01T04:16:53;25.30;;;13.30;;
43857;SDS011;29507;51.284;5.758;2022-08-01T04:19:19;22.95;;;14.63;;
43857;SDS011;29507;51.284;5.758;2022-08-01T04:21:45;23.83;;;13.38;;
43857;SDS011;29507;51.284;5.758;2022-08-01T04:24:12;23.50;;;14.60;;
43857;SDS011;29507;51.284;5.758;2022-08-01T04:26:40;24.13;;;15.00;;
43857;SDS011;29507;51.284;5.758;2022-08-01T04:29:08;24.43;;;15.10;;
43857;SDS011;29507;51.284;5.758;2022-08-01T04:31:36;32.72;;;15.38;;
43857;SDS011;29507;51.284;5.758;2022-08-01T04:34:04;31.85;;;15.73;;
43857;SDS011;29507;51.284;5.758;2022-08-01T04:36:32;23.17;;;14.82;;
43857;SDS011;29507;51.284;5.758;2022-08-01T04:39:01;24.25;;;15.02;;
43857;SDS011;29507;51.284;5.758;2022-08-01T04:41:29;32.53;;;15.97;;
43857;SDS011;29507;51.284;5.758;2022-08-01T04:43:56;22.23;;;14.50;;
43857;SDS011;29507;51.284;5.758;2022-08-01T04:46:24;22.85;;;14.38;;
43857;SDS011;29507;51.284;5.758;2022-08-01T04:48:49;23.08;;;14.30;;
43857;SDS011;29507;51.284;5.758;2022-08-01T04:51:16;24.00;;;16.10;;
43857;SDS011;29507;51.284;5.758;2022-08-01T04:53:43;26.20;;;15.40;;
43857;SDS011;29507;51.284;5.758;2022-08-01T04:56:10;26.40;;;15.75;;
43857;SDS011;29507;51.284;5.758;2022-08-01T04:58:38;26.77;;;15.00;;
43857;SDS011;29507;51.284;5.758;2022-08-01T05:01:07;30.80;;;16.95;;
43857;SDS011;29507;51.284;5.758;2022-08-01T05:03:34;28.25;;;17.17;;
43857;SDS011;29507;51.284;5.758;2022-08-01T05:05:59;29.75;;;15.52;;
43857;SDS011;29507;51.284;5.758;2022-08-01T05:08:25;25.05;;;15.50;;
43857;SDS011;29507;51.284;5.758;2022-08-01T05:10:51;28.33;;;15.60;;
43857;SDS011;29507;51.284;5.758;2022-08-01T05:13:17;27.65;;;16.35;;
43857;SDS011;29507;51.284;5.758;2022-08-01T05:15:43;29.92;;;17.00;;
43857;SDS011;29507;51.284;5.758;2022-08-01T05:18:09;23.27;;;14.70;;
43857;SDS011;29507;51.284;5.758;2022-08-01T05:20:35;26.38;;;15.75;;
43857;SDS011;29507;51.284;5.758;2022-08-01T05:23:01;26.05;;;15.43;;
43857;SDS011;29507;51.284;5.758;2022-08-01T05:25:28;28.98;;;16.42;;
43857;SDS011;29507;51.284;5.758;2022-08-01T05:27:53;25.48;;;15.77;;
43857;SDS011;29507;51.284;5.758;2022-08-01T05:30:19;24.58;;;15.40;;
43857;SDS011;29507;51.284;5.758;2022-08-01T05:32:44;24.85;;;13.98;;
43857;SDS011;29507;51.284;5.758;2022-08-01T05:35:10;24.98;;;15.63;;
43857;SDS011;29507;51.284;5.758;2022-08-01T05:37:36;25.55;;;14.82;;
43857;SDS011;29507;51.284;5.758;2022-08-01T05:40:02;24.63;;;15.55;;
43857;SDS011;29507;51.284;5.758;2022-08-01T05:42:28;28.00;;;16.05;;
43857;SDS011;29507;51.284;5.758;2022-08-01T05:44:54;28.98;;;15.38;;
43857;SDS011;29507;51.284;5.758;2022-08-01T05:47:20;23.90;;;15.13;;
43857;SDS011;29507;51.284;5.758;2022-08-01T05:49:45;26.73;;;15.52;;
43857;SDS011;29507;51.284;5.758;2022-08-01T05:52:11;22.17;;;15.20;;
43857;SDS011;29507;51.284;5.758;2022-08-01T05:54:37;26.83;;;16.10;;
43857;SDS011;29507;51.284;5.758;2022-08-01T05:57:03;23.00;;;13.88;;
43857;SDS011;29507;51.284;5.758;2022-08-01T05:59:29;29.25;;;15.60;;
43857;SDS011;29507;51.284;5.758;2022-08-01T06:01:55;26.80;;;16.08;;
43857;SDS011;29507;51.284;5.758;2022-08-01T06:04:21;27.15;;;16.88;;
43857;SDS011;29507;51.284;5.758;2022-08-01T06:06:46;25.63;;;16.15;;
43857;SDS011;29507;51.284;5.758;2022-08-01T06:09:13;25.00;;;15.25;;
43857;SDS011;29507;51.284;5.758;2022-08-01T06:11:38;32.65;;;17.38;;
43857;SDS011;29507;51.284;5.758;2022-08-01T06:14:04;25.20;;;15.63;;
43857;SDS011;29507;51.284;5.758;2022-08-01T06:16:30;27.15;;;16.13;;
43857;SDS011;29507;51.284;5.758;2022-08-01T06:18:56;25.25;;;16.70;;
43857;SDS011;29507;51.284;5.758;2022-08-01T06:21:21;24.20;;;15.35;;
43857;SDS011;29507;51.284;5.758;2022-08-01T06:23:47;25.30;;;16.80;;
43857;SDS011;29507;51.284;5.758;2022-08-01T06:26:13;23.08;;;16.80;;
43857;SDS011;29507;51.284;5.758;2022-08-01T06:28:38;28.80;;;17.35;;
43857;SDS011;29507;51.284;5.758;2022-08-01T06:31:04;27.67;;;17.88;;
43857;SDS011;29507;51.284;5.758;2022-08-01T06:33:30;22.58;;;14.55;;
43857;SDS011;29507;51.284;5.758;2022-08-01T06:35:56;22.38;;;16.20;;
43857;SDS011;29507;51.284;5.758;2022-08-01T06:38:21;23.75;;;16.33;;
43857;SDS011;29507;51.284;5.758;2022-08-01T06:40:47;25.33;;;17.40;;
43857;SDS011;29507;51.284;5.758;2022-08-01T06:43:13;22.75;;;16.90;;
43857;SDS011;29507;51.284;5.758;2022-08-01T06:45:39;21.85;;;16.70;;
43857;SDS011;29507;51.284;5.758;2022-08-01T06:48:05;25.33;;;16.88;;
43857;SDS011;29507;51.284;5.758;2022-08-01T06:50:30;21.40;;;16.13;;
43857;SDS011;29507;51.284;5.758;2022-08-01T06:52:56;24.63;;;16.65;;
43857;SDS011;29507;51.284;5.758;2022-08-01T06:55:22;23.23;;;16.42;;
43857;SDS011;29507;51.284;5.758;2022-08-01T06:57:49;23.33;;;16.35;;
43857;SDS011;29507;51.284;5.758;2022-08-01T07:00:16;19.60;;;15.98;;
43857;SDS011;29507;51.284;5.758;2022-08-01T07:02:45;25.02;;;16.70;;
43857;SDS011;29507;51.284;5.758;2022-08-01T07:05:11;22.75;;;16.10;;
43857;SDS011;29507;51.284;5.758;2022-08-01T07:07:38;23.10;;;17.25;;
43857;SDS011;29507;51.284;5.758;2022-08-01T07:10:03;24.85;;;17.58;;
43857;SDS011;29507;51.284;5.758;2022-08-01T07:12:30;21.90;;;15.88;;
43857;SDS011;29507;51.284;5.758;2022-08-01T07:14:55;22.55;;;16.38;;
43857;SDS011;29507;51.284;5.758;2022-08-01T07:17:21;23.38;;;17.48;;
43857;SDS011;29507;51.284;5.758;2022-08-01T07:19:47;22.48;;;16.70;;
43857;SDS011;29507;51.284;5.758;2022-08-01T07:22:13;22.23;;;16.05;;
43857;SDS011;29507;51.284;5.758;2022-08-01T07:24:41;18.58;;;13.88;;
43857;SDS011;29507;51.284;5.758;2022-08-01T07:27:07;17.77;;;13.60;;
43857;SDS011;29507;51.284;5.758;2022-08-01T07:29:33;18.63;;;13.32;;
43857;SDS011;29507;51.284;5.758;2022-08-01T07:31:58;17.70;;;11.73;;
43857;SDS011;29507;51.284;5.758;2022-08-01T07:34:24;18.63;;;12.85;;
43857;SDS011;29507;51.284;5.758;2022-08-01T07:36:51;15.10;;;10.70;;
43857;SDS011;29507;51.284;5.758;2022-08-01T07:39:17;15.10;;;10.52;;
43857;SDS011;29507;51.284;5.758;2022-08-01T07:41:43;13.65;;;10.00;;
43857;SDS011;29507;51.284;5.758;2022-08-01T07:44:09;14.40;;;9.77;;
43857;SDS011;29507;51.284;5.758;2022-08-01T07:46:35;10.43;;;7.57;;
43857;SDS011;29507;51.284;5.758;2022-08-01T07:49:00;10.93;;;7.72;;
43857;SDS011;29507;51.284;5.758;2022-08-01T07:51:26;10.57;;;7.07;;
43857;SDS011;29507;51.284;5.758;2022-08-01T07:53:51;9.95;;;7.55;;
43857;SDS011;29507;51.284;5.758;2022-08-01T07:56:17;9.82;;;6.80;;
43857;SDS011;29507;51.284;5.758;2022-08-01T07:58:43;12.15;;;7.90;;
43857;SDS011;29507;51.284;5.758;2022-08-01T08:01:08;9.18;;;5.82;;
43857;SDS011;29507;51.284;5.758;2022-08-01T08:03:34;12.23;;;6.03;;
43857;SDS011;29507;51.284;5.758;2022-08-01T08:06:00;10.10;;;6.75;;
43857;SDS011;29507;51.284;5.758;2022-08-01T08:08:25;6.60;;;4.57;;
43857;SDS011;29507;51.284;5.758;2022-08-01T08:10:51;7.80;;;4.30;;
43857;SDS011;29507;51.284;5.758;2022-08-01T08:13:17;4.55;;;2.80;;
43857;SDS011;29507;51.284;5.758;2022-08-01T08:15:42;4.07;;;1.85;;
43857;SDS011;29507;51.284;5.758;2022-08-01T08:18:08;4.28;;;2.50;;
43857;SDS011;29507;51.284;5.758;2022-08-01T08:20:34;4.43;;;2.40;;
43857;SDS011;29507;51.284;5.758;2022-08-01T08:22:59;2.30;;;1.23;;
43857;SDS011;29507;51.284;5.758;2022-08-01T08:25:25;2.97;;;1.27;;
43857;SDS011;29507;51.284;5.758;2022-08-01T08:27:52;4.47;;;1.52;;
43857;SDS011;29507;51.284;5.758;2022-08-01T08:30:18;2.78;;;1.48;;
43857;SDS011;29507;51.284;5.758;2022-08-01T08:32:44;2.85;;;1.45;;
43857;SDS011;29507;51.284;5.758;2022-08-01T08:35:10;3.05;;;1.60;;
43857;SDS011;29507;51.284;5.758;2022-08-01T08:37:35;3.92;;;1.33;;
43857;SDS011;29507;51.284;5.758;2022-08-01T08:40:05;3.28;;;1.10;;
43857;SDS011;29507;51.284;5.758;2022-08-01T08:42:31;2.63;;;1.42;;
43857;SDS011;29507;51.284;5.758;2022-08-01T08:44:58;3.10;;;1.80;;
43857;SDS011;29507;51.284;5.758;2022-08-01T08:47:24;5.90;;;2.38;;
43857;SDS011;29507;51.284;5.758;2022-08-01T08:49:53;2.83;;;1.58;;
43857;SDS011;29507;51.284;5.758;2022-08-01T08:52:20;3.92;;;1.67;;
43857;SDS011;29507;51.284;5.758;2022-08-01T08:54:47;2.65;;;1.33;;
43857;SDS011;29507;51.284;5.758;2022-08-01T08:57:14;5.28;;;2.28;;
43857;SDS011;29507;51.284;5.758;2022-08-01T08:59:42;1.65;;;0.77;;
43857;SDS011;29507;51.284;5.758;2022-08-01T09:02:08;2.35;;;1.00;;
43857;SDS011;29507;51.284;5.758;2022-08-01T09:04:35;5.03;;;0.98;;
43857;SDS011;29507;51.284;5.758;2022-08-01T09:07:03;2.05;;;1.00;;
43857;SDS011;29507;51.284;5.758;2022-08-01T09:09:30;2.38;;;1.30;;
43857;SDS011;29507;51.284;5.758;2022-08-01T09:11:56;3.03;;;1.17;;
43857;SDS011;29507;51.284;5.758;2022-08-01T09:14:22;2.47;;;1.20;;
43857;SDS011;29507;51.284;5.758;2022-08-01T09:17:04;2.33;;;1.10;;
43857;SDS011;29507;51.284;5.758;2022-08-01T09:19:37;2.42;;;0.93;;
43857;SDS011;29507;51.284;5.758;2022-08-01T09:22:05;2.40;;;1.25;;
43857;SDS011;29507;51.284;5.758;2022-08-01T09:24:32;3.78;;;1.13;;
43857;SDS011;29507;51.284;5.758;2022-08-01T09:26:59;3.05;;;1.25;;
43857;SDS011;29507;51.284;5.758;2022-08-01T09:29:29;2.47;;;1.02;;
43857;SDS011;29507;51.284;5.758;2022-08-01T09:31:59;2.10;;;1.10;;
43857;SDS011;29507;51.284;5.758;2022-08-01T09:34:31;1.95;;;0.95;;
43857;SDS011;29507;51.284;5.758;2022-08-01T09:36:58;3.17;;;1.45;;
43857;SDS011;29507;51.284;5.758;2022-08-01T09:39:33;2.13;;;1.00;;
43857;SDS011;29507;51.284;5.758;2022-08-01T09:44:48;1.80;;;1.00;;
43857;SDS011;29507;51.284;5.758;2022-08-01T09:47:14;1.75;;;1.00;;
43857;SDS011;29507;51.284;5.758;2022-08-01T09:49:41;2.20;;;1.20;;
43857;SDS011;29507;51.284;5.758;2022-08-01T09:52:18;2.17;;;1.00;;
43857;SDS011;29507;51.284;5.758;2022-08-01T09:54:52;2.70;;;1.23;;
43857;SDS011;29507;51.284;5.758;2022-08-01T09:57:21;4.05;;;1.40;;
43857;SDS011;29507;51.284;5.758;2022-08-01T09:59:48;2.38;;;1.02;;
43857;SDS011;29507;51.284;5.758;2022-08-01T10:04:54;2.30;;;0.93;;
43857;SDS011;29507;51.284;5.758;2022-08-01T10:07:20;1.65;;;0.85;;
43857;SDS011;29507;51.284;5.758;2022-08-01T10:09:47;3.35;;;1.17;;
43857;SDS011;29507;51.284;5.758;2022-08-01T10:12:14;2.05;;;1.00;;
43857;SDS011;29507;51.284;5.758;2022-08-01T10:14:43;2.42;;;1.10;;
43857;SDS011;29507;51.284;5.758;2022-08-01T10:17:11;4.90;;;1.40;;
43857;SDS011;29507;51.284;5.758;2022-08-01T10:19:42;3.03;;;1.50;;
43857;SDS011;29507;51.284;5.758;2022-08-01T10:22:09;1.90;;;1.20;;
43857;SDS011;29507;51.284;5.758;2022-08-01T10:24:40;4.77;;;1.10;;
43857;SDS011;29507;51.284;5.758;2022-08-01T10:27:08;5.53;;;1.30;;
43857;SDS011;29507;51.284;5.758;2022-08-01T10:29:36;2.33;;;1.45;;
43857;SDS011;29507;51.284;5.758;2022-08-01T10:34:38;2.58;;;1.20;;
43857;SDS011;29507;51.284;5.758;2022-08-01T10:37:04;2.00;;;1.08;;
43857;SDS011;29507;51.284;5.758;2022-08-01T10:39:31;2.40;;;1.48;;
43857;SDS011;29507;51.284;5.758;2022-08-01T10:41:57;3.05;;;1.17;;
43857;SDS011;29507;51.284;5.758;2022-08-01T10:44:24;2.00;;;1.40;;
43857;SDS011;29507;51.284;5.758;2022-08-01T10:46:52;3.60;;;1.33;;
43857;SDS011;29507;51.284;5.758;2022-08-01T10:49:23;2.50;;;1.20;;
43857;SDS011;29507;51.284;5.758;2022-08-01T10:51:51;3.10;;;1.48;;
43857;SDS011;29507;51.284;5.758;2022-08-01T10:54:16;2.60;;;1.35;;
43857;SDS011;29507;51.284;5.758;2022-08-01T10:56:43;2.47;;;1.33;;
43857;SDS011;29507;51.284;5.758;2022-08-01T11:02:06;1.88;;;1.10;;
43857;SDS011;29507;51.284;5.758;2022-08-01T11:07:23;4.32;;;1.20;;
43857;SDS011;29507;51.284;5.758;2022-08-01T11:10:06;2.40;;;1.20;;
43857;SDS011;29507;51.284;5.758;2022-08-01T11:12:40;2.08;;;1.10;;
43857;SDS011;29507;51.284;5.758;2022-08-01T11:33:11;1.40;;;0.65;;
43857;SDS011;29507;51.284;5.758;2022-08-01T11:36:15;2.60;;;0.68;;
43857;SDS011;29507;51.284;5.758;2022-08-01T11:38:40;1.25;;;0.50;;
43857;SDS011;29507;51.284;5.758;2022-08-01T11:52:29;1.00;;;0.55;;
43857;SDS011;29507;51.284;5.758;2022-08-01T11:54:58;1.90;;;0.63;;
43857;SDS011;29507;51.284;5.758;2022-08-01T11:57:31;1.63;;;0.50;;
43857;SDS011;29507;51.284;5.758;2022-08-01T12:02:38;1.70;;;0.90;;
43857;SDS011;29507;51.284;5.758;2022-08-01T12:05:07;1.20;;;0.50;;
43857;SDS011;29507;51.284;5.758;2022-08-01T12:07:43;1.60;;;0.85;;
43857;SDS011;29507;51.284;5.758;2022-08-01T12:10:10;1.98;;;1.10;;
43857;SDS011;29507;51.284;5.758;2022-08-01T12:12:37;2.08;;;1.02;;
43857;SDS011;29507;51.284;5.758;2022-08-01T12:15:08;1.88;;;1.20;;
43857;SDS011;29507;51.284;5.758;2022-08-01T12:17:44;4.28;;;1.75;;
43857;SDS011;29507;51.284;5.758;2022-08-01T12:20:13;2.50;;;1.50;;
43857;SDS011;29507;51.284;5.758;2022-08-01T12:22:40;2.57;;;1.20;;
43857;SDS011;29507;51.284;5.758;2022-08-01T12:27:37;2.85;;;1.60;;
43857;SDS011;29507;51.284;5.758;2022-08-01T12:30:05;3.47;;;1.50;;
43857;SDS011;29507;51.284;5.758;2022-08-01T12:32:36;4.32;;;1.50;;
43857;SDS011;29507;51.284;5.758;2022-08-01T12:35:10;3.38;;;1.83;;
43857;SDS011;29507;51.284;5.758;2022-08-01T12:37:37;4.07;;;1.85;;
43857;SDS011;29507;51.284;5.758;2022-08-01T12:42:48;3.92;;;1.92;;
43857;SDS011;29507;51.284;5.758;2022-08-01T12:45:17;2.85;;;1.73;;
43857;SDS011;29507;51.284;5.758;2022-08-01T12:47:52;3.35;;;1.67;;
43857;SDS011;29507;51.284;5.758;2022-08-01T12:50:19;3.22;;;1.70;;
43857;SDS011;29507;51.284;5.758;2022-08-01T12:52:47;2.17;;;1.30;;
43857;SDS011;29507;51.284;5.758;2022-08-01T12:57:42;4.43;;;1.60;;
43857;SDS011;29507;51.284;5.758;2022-08-01T13:00:14;3.20;;;1.67;;
43857;SDS011;29507;51.284;5.758;2022-08-01T13:02:46;5.90;;;1.30;;
43857;SDS011;29507;51.284;5.758;2022-08-01T13:05:13;6.72;;;1.45;;
43857;SDS011;29507;51.284;5.758;2022-08-01T13:07:42;6.40;;;1.40;;
43857;SDS011;29507;51.284;5.758;2022-08-01T13:10:10;3.42;;;1.00;;
43857;SDS011;29507;51.284;5.758;2022-08-01T13:12:37;3.58;;;1.48;;
43857;SDS011;29507;51.284;5.758;2022-08-01T13:23:41;2.30;;;1.27;;
43857;SDS011;29507;51.284;5.758;2022-08-01T13:26:40;3.30;;;1.17;;
43857;SDS011;29507;51.284;5.758;2022-08-01T13:29:08;1.70;;;0.98;;
43857;SDS011;29507;51.284;5.758;2022-08-01T13:31:38;5.60;;;1.30;;
43857;SDS011;29507;51.284;5.758;2022-08-01T13:34:05;2.13;;;1.17;;
43857;SDS011;29507;51.284;5.758;2022-08-01T13:36:31;2.80;;;1.35;;
43857;SDS011;29507;51.284;5.758;2022-08-01T13:39:00;2.42;;;1.20;;
43857;SDS011;29507;51.284;5.758;2022-08-01T13:41:45;3.00;;;1.20;;
43857;SDS011;29507;51.284;5.758;2022-08-01T13:44:11;2.30;;;1.25;;
43857;SDS011;29507;51.284;5.758;2022-08-01T13:46:38;2.95;;;1.20;;
43857;SDS011;29507;51.284;5.758;2022-08-01T13:49:05;1.92;;;0.98;;
43857;SDS011;29507;51.284;5.758;2022-08-01T13:51:32;2.13;;;1.00;;
43857;SDS011;29507;51.284;5.758;2022-08-01T13:53:58;4.45;;;0.95;;
43857;SDS011;29507;51.284;5.758;2022-08-01T13:56:24;4.57;;;1.10;;
43857;SDS011;29507;51.284;5.758;2022-08-01T13:58:52;2.73;;;1.03;;
43857;SDS011;29507;51.284;5.758;2022-08-01T14:01:18;2.03;;;1.00;;
43857;SDS011;29507;51.284;5.758;2022-08-01T14:03:43;2.42;;;0.95;;
43857;SDS011;29507;51.284;5.758;2022-08-01T14:06:09;2.67;;;1.00;;
43857;SDS011;29507;51.284;5.758;2022-08-01T14:08:35;2.70;;;1.10;;
43857;SDS011;29507;51.284;5.758;2022-08-01T14:11:01;3.53;;;1.25;;
43857;SDS011;29507;51.284;5.758;2022-08-01T14:13:27;4.30;;;1.10;;
43857;SDS011;29507;51.284;5.758;2022-08-01T14:15:53;4.93;;;1.50;;
43857;SDS011;29507;51.284;5.758;2022-08-01T14:18:19;2.30;;;1.10;;
43857;SDS011;29507;51.284;5.758;2022-08-01T14:20:44;2.80;;;1.20;;
43857;SDS011;29507;51.284;5.758;2022-08-01T14:23:10;2.90;;;1.30;;
43857;SDS011;29507;51.284;5.758;2022-08-01T14:25:36;1.95;;;0.80;;
43857;SDS011;29507;51.284;5.758;2022-08-01T14:28:03;2.53;;;1.38;;
43857;SDS011;29507;51.284;5.758;2022-08-01T14:30:28;3.45;;;1.27;;
43857;SDS011;29507;51.284;5.758;2022-08-01T14:32:54;5.60;;;1.60;;
43857;SDS011;29507;51.284;5.758;2022-08-01T14:35:20;2.95;;;1.23;;
43857;SDS011;29507;51.284;5.758;2022-08-01T14:37:46;4.60;;;0.98;;
43857;SDS011;29507;51.284;5.758;2022-08-01T14:40:12;3.50;;;1.30;;
43857;SDS011;29507;51.284;5.758;2022-08-01T14:42:37;4.82;;;1.38;;
43857;SDS011;29507;51.284;5.758;2022-08-01T14:45:04;3.30;;;1.55;;
43857;SDS011;29507;51.284;5.758;2022-08-01T14:47:34;3.50;;;1.20;;
43857;SDS011;29507;51.284;5.758;2022-08-01T14:50:05;3.97;;;1.48;;
43857;SDS011;29507;51.284;5.758;2022-08-01T14:52:33;5.17;;;1.53;;
43857;SDS011;29507;51.284;5.758;2022-08-01T14:54:59;4.82;;;1.20;;
43857;SDS011;29507;51.284;5.758;2022-08-01T14:57:25;2.92;;;1.15;;
43857;SDS011;29507;51.284;5.758;2022-08-01T14:59:51;2.90;;;1.08;;
43857;SDS011;29507;51.284;5.758;2022-08-01T15:02:17;4.15;;;1.17;;
43857;SDS011;29507;51.284;5.758;2022-08-01T15:04:43;2.50;;;1.25;;
43857;SDS011;29507;51.284;5.758;2022-08-01T15:07:10;4.85;;;1.15;;
43857;SDS011;29507;51.284;5.758;2022-08-01T15:09:36;2.70;;;0.93;;
43857;SDS011;29507;51.284;5.758;2022-08-01T15:12:02;5.80;;;1.20;;
43857;SDS011;29507;51.284;5.758;2022-08-01T15:14:27;3.75;;;1.15;;
43857;SDS011;29507;51.284;5.758;2022-08-01T15:17:12;2.60;;;1.13;;
43857;SDS011;29507;51.284;5.758;2022-08-01T15:19:37;3.35;;;1.00;;
43857;SDS011;29507;51.284;5.758;2022-08-01T15:22:03;3.15;;;1.30;;
43857;SDS011;29507;51.284;5.758;2022-08-01T15:24:30;3.40;;;1.40;;
43857;SDS011;29507;51.284;5.758;2022-08-01T15:26:58;3.40;;;1.15;;
43857;SDS011;29507;51.284;5.758;2022-08-01T15:29:24;3.42;;;1.10;;
43857;SDS011;29507;51.284;5.758;2022-08-01T15:31:49;3.60;;;1.27;;
43857;SDS011;29507;51.284;5.758;2022-08-01T15:34:15;3.10;;;1.15;;
43857;SDS011;29507;51.284;5.758;2022-08-01T15:36:41;3.92;;;1.55;;
43857;SDS011;29507;51.284;5.758;2022-08-01T15:39:08;2.85;;;1.10;;
43857;SDS011;29507;51.284;5.758;2022-08-01T15:41:36;4.10;;;1.48;;
43857;SDS011;29507;51.284;5.758;2022-08-01T15:44:02;3.88;;;1.40;;
43857;SDS011;29507;51.284;5.758;2022-08-01T15:46:28;3.45;;;1.20;;
43857;SDS011;29507;51.284;5.758;2022-08-01T15:48:53;5.05;;;1.75;;
43857;SDS011;29507;51.284;5.758;2022-08-01T15:51:19;2.80;;;1.48;;
43857;SDS011;29507;51.284;5.758;2022-08-01T15:53:44;3.47;;;1.20;;